sensor_id;sensor_type;location;lat;lon;timestamp;P1;durP1;ratioP1;P2;durP2;ratioP2
44110;SDS011;29774;52.664;5.074;2022-08-01T00:02:04;4.97;;;3.42;;
44110;SDS011;29774;52.664;5.074;2022-08-01T00:04:30;2.03;;;1.80;;
44110;SDS011;29774;52.664;5.074;2022-08-01T00:06:55;4.82;;;3.50;;
44110;SDS011;29774;52.664;5.074;2022-08-01T00:09:21;4.75;;;3.80;;
44110;SDS011;29774;52.664;5.074;2022-08-01T00:11:46;1.67;;;1.30;;
44110;SDS011;29774;52.664;5.074;2022-08-01T00:14:12;2.25;;;2.00;;
44110;SDS011;29774;52.664;5.074;2022-08-01T00:16:37;2.55;;;2.05;;
44110;SDS011;29774;52.664;5.074;2022-08-01T00:19:03;3.75;;;2.05;;
44110;SDS011;29774;52.664;5.074;2022-08-01T00:21:29;2.88;;;1.50;;
44110;SDS011;29774;52.664;5.074;2022-08-01T00:23:54;2.80;;;2.38;;
44110;SDS011;29774;52.664;5.074;2022-08-01T00:26:20;5.28;;;2.92;;
44110;SDS011;29774;52.664;5.074;2022-08-01T00:28:45;1.83;;;1.60;;
44110;SDS011;29774;52.664;5.074;2022-08-01T00:31:11;4.88;;;2.72;;
44110;SDS011;29774;52.664;5.074;2022-08-01T00:33:37;4.78;;;1.85;;
44110;SDS011;29774;52.664;5.074;2022-08-01T00:36:02;3.10;;;2.35;;
44110;SDS011;29774;52.664;5.074;2022-08-01T00:38:28;2.80;;;2.35;;
44110;SDS011;29774;52.664;5.074;2022-08-01T00:40:54;3.72;;;2.42;;
44110;SDS011;29774;52.664;5.074;2022-08-01T00:43:19;2.75;;;1.58;;
44110;SDS011;29774;52.664;5.074;2022-08-01T00:45:45;1.75;;;1.65;;
44110;SDS011;29774;52.664;5.074;2022-08-01T00:48:10;3.95;;;2.00;;
44110;SDS011;29774;52.664;5.074;2022-08-01T00:50:36;5.05;;;2.15;;
44110;SDS011;29774;52.664;5.074;2022-08-01T00:53:03;2.83;;;2.28;;
44110;SDS011;29774;52.664;5.074;2022-08-01T00:55:29;2.50;;;1.63;;
44110;SDS011;29774;52.664;5.074;2022-08-01T00:57:56;5.22;;;2.88;;
44110;SDS011;29774;52.664;5.074;2022-08-01T01:00:23;4.05;;;2.20;;
44110;SDS011;29774;52.664;5.074;2022-08-01T01:02:48;3.13;;;2.70;;
44110;SDS011;29774;52.664;5.074;2022-08-01T01:05:14;2.35;;;1.50;;
44110;SDS011;29774;52.664;5.074;2022-08-01T01:07:42;1.20;;;1.10;;
44110;SDS011;29774;52.664;5.074;2022-08-01T01:13:18;2.50;;;1.80;;
44110;SDS011;29774;52.664;5.074;2022-08-01T01:15:51;4.88;;;2.30;;
44110;SDS011;29774;52.664;5.074;2022-08-01T01:18:25;3.55;;;2.10;;
44110;SDS011;29774;52.664;5.074;2022-08-01T01:21:07;2.92;;;2.20;;
44110;SDS011;29774;52.664;5.074;2022-08-01T01:32:13;6.60;;;1.73;;
44110;SDS011;29774;52.664;5.074;2022-08-01T01:34:45;2.35;;;1.60;;
44110;SDS011;29774;52.664;5.074;2022-08-01T01:37:16;3.53;;;2.00;;
44110;SDS011;29774;52.664;5.074;2022-08-01T01:39:46;4.25;;;1.58;;
44110;SDS011;29774;52.664;5.074;2022-08-01T01:42:15;3.20;;;2.00;;
44110;SDS011;29774;52.664;5.074;2022-08-01T01:44:42;3.20;;;1.60;;
44110;SDS011;29774;52.664;5.074;2022-08-01T01:47:09;2.75;;;1.10;;
44110;SDS011;29774;52.664;5.074;2022-08-01T01:49:37;1.10;;;0.90;;
44110;SDS011;29774;52.664;5.074;2022-08-01T01:52:04;2.10;;;1.10;;
44110;SDS011;29774;52.664;5.074;2022-08-01T01:54:33;2.47;;;1.00;;
44110;SDS011;29774;52.664;5.074;2022-08-01T01:57:02;3.47;;;1.45;;
44110;SDS011;29774;52.664;5.074;2022-08-01T01:59:30;2.42;;;0.70;;
44110;SDS011;29774;52.664;5.074;2022-08-01T02:01:59;2.08;;;1.00;;
44110;SDS011;29774;52.664;5.074;2022-08-01T02:04:28;2.20;;;0.80;;
44110;SDS011;29774;52.664;5.074;2022-08-01T02:06:55;1.55;;;0.68;;
44110;SDS011;29774;52.664;5.074;2022-08-01T02:09:22;0.70;;;0.70;;
44110;SDS011;29774;52.664;5.074;2022-08-01T02:11:51;1.65;;;0.98;;
44110;SDS011;29774;52.664;5.074;2022-08-01T02:14:19;1.42;;;0.90;;
44110;SDS011;29774;52.664;5.074;2022-08-01T02:16:47;1.52;;;0.75;;
44110;SDS011;29774;52.664;5.074;2022-08-01T02:19:14;1.98;;;1.20;;
44110;SDS011;29774;52.664;5.074;2022-08-01T02:24:59;1.48;;;1.05;;
44110;SDS011;29774;52.664;5.074;2022-08-01T02:30:30;1.30;;;1.20;;
44110;SDS011;29774;52.664;5.074;2022-08-01T02:33:02;1.15;;;1.02;;
44110;SDS011;29774;52.664;5.074;2022-08-01T02:35:32;2.90;;;1.27;;
44110;SDS011;29774;52.664;5.074;2022-08-01T02:38:01;1.45;;;1.17;;
44110;SDS011;29774;52.664;5.074;2022-08-01T02:40:32;1.77;;;1.13;;
44110;SDS011;29774;52.664;5.074;2022-08-01T02:42:59;1.25;;;0.90;;
44110;SDS011;29774;52.664;5.074;2022-08-01T02:45:28;2.83;;;1.27;;
44110;SDS011;29774;52.664;5.074;2022-08-01T02:47:57;2.22;;;1.38;;
44110;SDS011;29774;52.664;5.074;2022-08-01T02:50:26;3.00;;;1.63;;
44110;SDS011;29774;52.664;5.074;2022-08-01T02:52:53;4.10;;;1.65;;
44110;SDS011;29774;52.664;5.074;2022-08-01T02:55:20;2.80;;;1.50;;
44110;SDS011;29774;52.664;5.074;2022-08-01T02:57:47;4.90;;;1.70;;
44110;SDS011;29774;52.664;5.074;2022-08-01T03:00:15;2.00;;;1.30;;
44110;SDS011;29774;52.664;5.074;2022-08-01T03:02:41;4.22;;;1.50;;
44110;SDS011;29774;52.664;5.074;2022-08-01T03:05:09;3.30;;;1.83;;
44110;SDS011;29774;52.664;5.074;2022-08-01T03:07:37;5.18;;;1.70;;
44110;SDS011;29774;52.664;5.074;2022-08-01T03:10:04;3.15;;;2.10;;
44110;SDS011;29774;52.664;5.074;2022-08-01T03:12:31;3.22;;;1.88;;
44110;SDS011;29774;52.664;5.074;2022-08-01T03:14:59;3.63;;;1.92;;
44110;SDS011;29774;52.664;5.074;2022-08-01T03:17:26;4.28;;;2.33;;
44110;SDS011;29774;52.664;5.074;2022-08-01T03:19:53;2.47;;;1.80;;
44110;SDS011;29774;52.664;5.074;2022-08-01T03:22:21;3.92;;;1.70;;
44110;SDS011;29774;52.664;5.074;2022-08-01T03:24:50;2.35;;;1.92;;
44110;SDS011;29774;52.664;5.074;2022-08-01T03:27:18;3.15;;;2.00;;
44110;SDS011;29774;52.664;5.074;2022-08-01T03:29:47;1.30;;;1.20;;
44110;SDS011;29774;52.664;5.074;2022-08-01T03:32:14;1.90;;;1.40;;
44110;SDS011;29774;52.664;5.074;2022-08-01T03:34:40;2.15;;;1.17;;
44110;SDS011;29774;52.664;5.074;2022-08-01T03:37:07;2.30;;;1.20;;
44110;SDS011;29774;52.664;5.074;2022-08-01T03:39:40;2.95;;;1.15;;
44110;SDS011;29774;52.664;5.074;2022-08-01T03:42:16;4.05;;;2.20;;
44110;SDS011;29774;52.664;5.074;2022-08-01T03:44:48;2.60;;;1.45;;
44110;SDS011;29774;52.664;5.074;2022-08-01T03:47:19;5.28;;;2.40;;
44110;SDS011;29774;52.664;5.074;2022-08-01T03:49:47;4.45;;;1.58;;
44110;SDS011;29774;52.664;5.074;2022-08-01T03:52:14;5.05;;;1.52;;
44110;SDS011;29774;52.664;5.074;2022-08-01T03:54:43;3.65;;;1.38;;
44110;SDS011;29774;52.664;5.074;2022-08-01T03:57:12;4.20;;;2.22;;
44110;SDS011;29774;52.664;5.074;2022-08-01T03:59:39;11.90;;;2.88;;
44110;SDS011;29774;52.664;5.074;2022-08-01T04:02:06;7.20;;;2.55;;
44110;SDS011;29774;52.664;5.074;2022-08-01T04:04:32;2.33;;;1.42;;
44110;SDS011;29774;52.664;5.074;2022-08-01T04:06:58;3.53;;;1.55;;
44110;SDS011;29774;52.664;5.074;2022-08-01T04:09:29;3.17;;;1.73;;
44110;SDS011;29774;52.664;5.074;2022-08-01T04:11:58;5.97;;;1.83;;
44110;SDS011;29774;52.664;5.074;2022-08-01T04:14:25;5.75;;;1.85;;
44110;SDS011;29774;52.664;5.074;2022-08-01T04:16:52;3.42;;;1.40;;
44110;SDS011;29774;52.664;5.074;2022-08-01T04:19:18;5.88;;;1.77;;
44110;SDS011;29774;52.664;5.074;2022-08-01T04:21:43;3.65;;;1.08;;
44110;SDS011;29774;52.664;5.074;2022-08-01T04:24:10;5.07;;;1.27;;
44110;SDS011;29774;52.664;5.074;2022-08-01T04:26:38;4.28;;;1.40;;
44110;SDS011;29774;52.664;5.074;2022-08-01T04:29:06;5.22;;;1.40;;
44110;SDS011;29774;52.664;5.074;2022-08-01T04:31:35;4.35;;;1.35;;
44110;SDS011;29774;52.664;5.074;2022-08-01T04:34:02;2.55;;;1.30;;
44110;SDS011;29774;52.664;5.074;2022-08-01T04:36:30;5.72;;;2.08;;
44110;SDS011;29774;52.664;5.074;2022-08-01T04:39:00;8.35;;;2.08;;
44110;SDS011;29774;52.664;5.074;2022-08-01T04:41:27;4.13;;;1.98;;
44110;SDS011;29774;52.664;5.074;2022-08-01T04:43:54;3.90;;;1.23;;
44110;SDS011;29774;52.664;5.074;2022-08-01T04:46:24;7.10;;;1.70;;
44110;SDS011;29774;52.664;5.074;2022-08-01T04:48:50;3.70;;;1.63;;
44110;SDS011;29774;52.664;5.074;2022-08-01T04:51:16;4.65;;;1.50;;
44110;SDS011;29774;52.664;5.074;2022-08-01T04:53:45;5.85;;;1.63;;
44110;SDS011;29774;52.664;5.074;2022-08-01T04:56:11;5.57;;;1.40;;
44110;SDS011;29774;52.664;5.074;2022-08-01T04:58:40;5.82;;;1.67;;
44110;SDS011;29774;52.664;5.074;2022-08-01T05:01:06;6.28;;;1.73;;
44110;SDS011;29774;52.664;5.074;2022-08-01T05:03:32;9.07;;;2.15;;
44110;SDS011;29774;52.664;5.074;2022-08-01T05:05:58;5.22;;;1.48;;
44110;SDS011;29774;52.664;5.074;2022-08-01T05:08:24;5.60;;;1.73;;
44110;SDS011;29774;52.664;5.074;2022-08-01T05:10:49;5.20;;;1.83;;
44110;SDS011;29774;52.664;5.074;2022-08-01T05:13:15;3.40;;;1.90;;
44110;SDS011;29774;52.664;5.074;2022-08-01T05:15:41;6.07;;;1.75;;
44110;SDS011;29774;52.664;5.074;2022-08-01T05:18:06;11.07;;;2.15;;
44110;SDS011;29774;52.664;5.074;2022-08-01T05:20:33;5.93;;;1.73;;
44110;SDS011;29774;52.664;5.074;2022-08-01T05:22:58;5.00;;;1.77;;
44110;SDS011;29774;52.664;5.074;2022-08-01T05:25:24;9.73;;;1.83;;
44110;SDS011;29774;52.664;5.074;2022-08-01T05:27:49;5.13;;;1.50;;
44110;SDS011;29774;52.664;5.074;2022-08-01T05:30:15;5.85;;;1.60;;
44110;SDS011;29774;52.664;5.074;2022-08-01T05:32:41;8.05;;;1.75;;
44110;SDS011;29774;52.664;5.074;2022-08-01T05:35:07;4.90;;;1.30;;
44110;SDS011;29774;52.664;5.074;2022-08-01T05:37:33;6.45;;;1.65;;
44110;SDS011;29774;52.664;5.074;2022-08-01T05:39:59;7.70;;;1.90;;
44110;SDS011;29774;52.664;5.074;2022-08-01T05:42:25;3.90;;;1.35;;
44110;SDS011;29774;52.664;5.074;2022-08-01T05:44:51;6.65;;;1.65;;
44110;SDS011;29774;52.664;5.074;2022-08-01T05:47:16;4.32;;;1.50;;
44110;SDS011;29774;52.664;5.074;2022-08-01T05:49:43;7.00;;;1.88;;
44110;SDS011;29774;52.664;5.074;2022-08-01T05:52:09;9.13;;;1.40;;
44110;SDS011;29774;52.664;5.074;2022-08-01T05:54:34;5.90;;;1.45;;
44110;SDS011;29774;52.664;5.074;2022-08-01T05:57:00;11.40;;;2.42;;
44110;SDS011;29774;52.664;5.074;2022-08-01T05:59:26;4.68;;;1.10;;
44110;SDS011;29774;52.664;5.074;2022-08-01T06:01:53;8.38;;;1.52;;
44110;SDS011;29774;52.664;5.074;2022-08-01T06:04:18;8.10;;;1.73;;
44110;SDS011;29774;52.664;5.074;2022-08-01T06:06:44;7.15;;;1.92;;
44110;SDS011;29774;52.664;5.074;2022-08-01T06:09:09;3.67;;;1.20;;
44110;SDS011;29774;52.664;5.074;2022-08-01T06:11:35;6.85;;;1.55;;
44110;SDS011;29774;52.664;5.074;2022-08-01T06:14:01;8.43;;;1.60;;
44110;SDS011;29774;52.664;5.074;2022-08-01T06:16:26;5.63;;;1.40;;
44110;SDS011;29774;52.664;5.074;2022-08-01T06:18:52;4.10;;;1.27;;
44110;SDS011;29774;52.664;5.074;2022-08-01T06:21:18;2.92;;;1.20;;
44110;SDS011;29774;52.664;5.074;2022-08-01T06:23:43;7.93;;;1.67;;
44110;SDS011;29774;52.664;5.074;2022-08-01T06:26:09;5.90;;;1.40;;
44110;SDS011;29774;52.664;5.074;2022-08-01T06:28:35;4.15;;;1.15;;
44110;SDS011;29774;52.664;5.074;2022-08-01T06:31:01;3.65;;;1.38;;
44110;SDS011;29774;52.664;5.074;2022-08-01T06:33:27;5.05;;;1.55;;
44110;SDS011;29774;52.664;5.074;2022-08-01T06:35:53;3.97;;;1.38;;
44110;SDS011;29774;52.664;5.074;2022-08-01T06:38:18;6.68;;;1.70;;
44110;SDS011;29774;52.664;5.074;2022-08-01T06:40:44;10.55;;;2.38;;
44110;SDS011;29774;52.664;5.074;2022-08-01T06:43:10;4.47;;;1.90;;
44110;SDS011;29774;52.664;5.074;2022-08-01T06:45:36;3.00;;;1.20;;
44110;SDS011;29774;52.664;5.074;2022-08-01T06:48:03;5.15;;;2.00;;
44110;SDS011;29774;52.664;5.074;2022-08-01T06:50:29;4.15;;;1.38;;
44110;SDS011;29774;52.664;5.074;2022-08-01T06:52:54;3.38;;;1.50;;
44110;SDS011;29774;52.664;5.074;2022-08-01T06:55:20;7.05;;;1.70;;
44110;SDS011;29774;52.664;5.074;2022-08-01T06:57:46;5.78;;;1.83;;
44110;SDS011;29774;52.664;5.074;2022-08-01T07:00:14;7.63;;;1.58;;
44110;SDS011;29774;52.664;5.074;2022-08-01T07:02:41;8.52;;;1.80;;
44110;SDS011;29774;52.664;5.074;2022-08-01T07:05:07;3.88;;;1.30;;
44110;SDS011;29774;52.664;5.074;2022-08-01T07:07:34;8.10;;;1.70;;
44110;SDS011;29774;52.664;5.074;2022-08-01T07:09:59;4.15;;;1.42;;
44110;SDS011;29774;52.664;5.074;2022-08-01T07:12:25;5.47;;;1.58;;
44110;SDS011;29774;52.664;5.074;2022-08-01T07:14:50;3.53;;;1.40;;
44110;SDS011;29774;52.664;5.074;2022-08-01T07:17:16;5.45;;;1.33;;
44110;SDS011;29774;52.664;5.074;2022-08-01T07:19:41;4.88;;;1.30;;
44110;SDS011;29774;52.664;5.074;2022-08-01T07:22:07;5.85;;;1.60;;
44110;SDS011;29774;52.664;5.074;2022-08-01T07:24:32;4.68;;;1.30;;
44110;SDS011;29774;52.664;5.074;2022-08-01T07:26:58;5.93;;;1.40;;
44110;SDS011;29774;52.664;5.074;2022-08-01T07:29:24;6.63;;;1.75;;
44110;SDS011;29774;52.664;5.074;2022-08-01T07:31:54;6.35;;;1.90;;
44110;SDS011;29774;52.664;5.074;2022-08-01T07:34:21;6.03;;;1.45;;
44110;SDS011;29774;52.664;5.074;2022-08-01T07:36:47;7.50;;;1.90;;
44110;SDS011;29774;52.664;5.074;2022-08-01T07:39:13;14.15;;;4.82;;
44110;SDS011;29774;52.664;5.074;2022-08-01T07:41:38;12.20;;;3.83;;
44110;SDS011;29774;52.664;5.074;2022-08-01T07:44:04;13.55;;;4.25;;
44110;SDS011;29774;52.664;5.074;2022-08-01T07:46:29;13.27;;;3.38;;
44110;SDS011;29774;52.664;5.074;2022-08-01T07:48:55;10.15;;;3.42;;
44110;SDS011;29774;52.664;5.074;2022-08-01T07:51:21;10.82;;;2.90;;
44110;SDS011;29774;52.664;5.074;2022-08-01T07:53:47;8.15;;;3.05;;
44110;SDS011;29774;52.664;5.074;2022-08-01T07:56:13;7.65;;;2.75;;
44110;SDS011;29774;52.664;5.074;2022-08-01T07:58:38;10.32;;;3.60;;
44110;SDS011;29774;52.664;5.074;2022-08-01T08:01:04;7.95;;;2.88;;
44110;SDS011;29774;52.664;5.074;2022-08-01T08:03:30;9.50;;;2.60;;
44110;SDS011;29774;52.664;5.074;2022-08-01T08:05:55;5.75;;;2.53;;
44110;SDS011;29774;52.664;5.074;2022-08-01T08:08:21;7.32;;;1.95;;
44110;SDS011;29774;52.664;5.074;2022-08-01T08:13:50;7.25;;;1.70;;
44110;SDS011;29774;52.664;5.074;2022-08-01T08:16:15;5.65;;;1.92;;
44110;SDS011;29774;52.664;5.074;2022-08-01T08:18:41;6.70;;;1.77;;
44110;SDS011;29774;52.664;5.074;2022-08-01T08:21:06;4.43;;;1.85;;
44110;SDS011;29774;52.664;5.074;2022-08-01T08:23:32;7.85;;;1.70;;
44110;SDS011;29774;52.664;5.074;2022-08-01T08:26:16;5.57;;;1.30;;
44110;SDS011;29774;52.664;5.074;2022-08-01T08:28:42;5.78;;;1.42;;
44110;SDS011;29774;52.664;5.074;2022-08-01T08:31:07;4.60;;;1.70;;
44110;SDS011;29774;52.664;5.074;2022-08-01T08:33:33;5.63;;;1.45;;
44110;SDS011;29774;52.664;5.074;2022-08-01T08:35:58;7.97;;;1.77;;
44110;SDS011;29774;52.664;5.074;2022-08-01T08:38:24;5.88;;;1.35;;
44110;SDS011;29774;52.664;5.074;2022-08-01T08:40:52;11.77;;;1.88;;
44110;SDS011;29774;52.664;5.074;2022-08-01T08:43:18;3.03;;;1.33;;
44110;SDS011;29774;52.664;5.074;2022-08-01T08:45:44;7.70;;;1.65;;
44110;SDS011;29774;52.664;5.074;2022-08-01T08:48:10;3.80;;;1.67;;
44110;SDS011;29774;52.664;5.074;2022-08-01T08:50:37;2.25;;;1.00;;
44110;SDS011;29774;52.664;5.074;2022-08-01T08:53:04;8.88;;;1.63;;
44110;SDS011;29774;52.664;5.074;2022-08-01T08:55:30;5.43;;;1.50;;
44110;SDS011;29774;52.664;5.074;2022-08-01T08:57:55;5.65;;;1.30;;
44110;SDS011;29774;52.664;5.074;2022-08-01T09:00:22;2.00;;;1.05;;
44110;SDS011;29774;52.664;5.074;2022-08-01T09:02:48;5.00;;;1.33;;
44110;SDS011;29774;52.664;5.074;2022-08-01T09:05:14;5.90;;;1.77;;
44110;SDS011;29774;52.664;5.074;2022-08-01T09:07:40;8.18;;;1.40;;
44110;SDS011;29774;52.664;5.074;2022-08-01T09:10:05;5.22;;;1.25;;
44110;SDS011;29774;52.664;5.074;2022-08-01T09:12:32;4.78;;;1.25;;
44110;SDS011;29774;52.664;5.074;2022-08-01T09:14:58;3.75;;;1.30;;
44110;SDS011;29774;52.664;5.074;2022-08-01T09:17:23;12.32;;;1.67;;
44110;SDS011;29774;52.664;5.074;2022-08-01T09:19:53;5.32;;;1.20;;
44110;SDS011;29774;52.664;5.074;2022-08-01T09:22:23;6.15;;;1.50;;
44110;SDS011;29774;52.664;5.074;2022-08-01T09:24:59;3.75;;;1.13;;
44110;SDS011;29774;52.664;5.074;2022-08-01T09:27:28;7.10;;;1.55;;
44110;SDS011;29774;52.664;5.074;2022-08-01T09:29:54;4.03;;;1.08;;
44110;SDS011;29774;52.664;5.074;2022-08-01T09:32:31;5.43;;;1.13;;
44110;SDS011;29774;52.664;5.074;2022-08-01T09:34:56;3.40;;;0.85;;
44110;SDS011;29774;52.664;5.074;2022-08-01T09:37:29;4.38;;;1.00;;
44110;SDS011;29774;52.664;5.074;2022-08-01T09:39:55;3.85;;;1.00;;
44110;SDS011;29774;52.664;5.074;2022-08-01T09:42:26;6.22;;;1.38;;
44110;SDS011;29774;52.664;5.074;2022-08-01T09:44:52;2.03;;;1.23;;
44110;SDS011;29774;52.664;5.074;2022-08-01T09:47:18;4.07;;;1.60;;
44110;SDS011;29774;52.664;5.074;2022-08-01T09:49:54;3.38;;;1.42;;
44110;SDS011;29774;52.664;5.074;2022-08-01T09:52:22;4.63;;;1.10;;
44110;SDS011;29774;52.664;5.074;2022-08-01T09:54:59;4.05;;;1.35;;
44110;SDS011;29774;52.664;5.074;2022-08-01T09:57:29;3.00;;;1.00;;
44110;SDS011;29774;52.664;5.074;2022-08-01T09:59:56;4.03;;;1.08;;
44110;SDS011;29774;52.664;5.074;2022-08-01T10:02:36;5.82;;;1.63;;
44110;SDS011;29774;52.664;5.074;2022-08-01T10:05:04;5.03;;;1.10;;
44110;SDS011;29774;52.664;5.074;2022-08-01T10:07:32;4.15;;;1.02;;
44110;SDS011;29774;52.664;5.074;2022-08-01T10:10:08;5.65;;;1.10;;
44110;SDS011;29774;52.664;5.074;2022-08-01T10:12:38;6.20;;;1.35;;
44110;SDS011;29774;52.664;5.074;2022-08-01T10:15:06;6.25;;;1.15;;
44110;SDS011;29774;52.664;5.074;2022-08-01T10:17:32;2.75;;;0.98;;
44110;SDS011;29774;52.664;5.074;2022-08-01T10:19:59;2.85;;;1.00;;
44110;SDS011;29774;52.664;5.074;2022-08-01T10:22:27;6.10;;;1.33;;
44110;SDS011;29774;52.664;5.074;2022-08-01T10:24:55;4.50;;;1.15;;
44110;SDS011;29774;52.664;5.074;2022-08-01T10:27:22;7.65;;;1.63;;
44110;SDS011;29774;52.664;5.074;2022-08-01T10:29:51;4.13;;;1.20;;
44110;SDS011;29774;52.664;5.074;2022-08-01T10:32:22;2.92;;;1.10;;
44110;SDS011;29774;52.664;5.074;2022-08-01T10:34:49;4.75;;;1.10;;
44110;SDS011;29774;52.664;5.074;2022-08-01T10:37:15;5.20;;;1.17;;
44110;SDS011;29774;52.664;5.074;2022-08-01T10:39:42;4.38;;;1.20;;
44110;SDS011;29774;52.664;5.074;2022-08-01T10:42:09;6.65;;;1.27;;
44110;SDS011;29774;52.664;5.074;2022-08-01T10:44:35;6.45;;;1.40;;
44110;SDS011;29774;52.664;5.074;2022-08-01T10:47:09;5.93;;;1.30;;
44110;SDS011;29774;52.664;5.074;2022-08-01T10:49:43;4.15;;;1.05;;
44110;SDS011;29774;52.664;5.074;2022-08-01T10:52:16;4.68;;;1.15;;
44110;SDS011;29774;52.664;5.074;2022-08-01T10:54:42;7.15;;;1.60;;
44110;SDS011;29774;52.664;5.074;2022-08-01T10:57:08;3.75;;;0.90;;
44110;SDS011;29774;52.664;5.074;2022-08-01T10:59:35;3.25;;;0.90;;
44110;SDS011;29774;52.664;5.074;2022-08-01T11:02:11;4.53;;;1.30;;
44110;SDS011;29774;52.664;5.074;2022-08-01T11:05:00;4.95;;;1.10;;
44110;SDS011;29774;52.664;5.074;2022-08-01T11:07:48;5.70;;;1.60;;
44110;SDS011;29774;52.664;5.074;2022-08-01T11:12:55;7.07;;;1.13;;
44110;SDS011;29774;52.664;5.074;2022-08-01T11:15:21;3.45;;;0.98;;
44110;SDS011;29774;52.664;5.074;2022-08-01T11:17:52;3.35;;;0.98;;
44110;SDS011;29774;52.664;5.074;2022-08-01T11:20:25;3.95;;;0.93;;
44110;SDS011;29774;52.664;5.074;2022-08-01T11:25:26;2.67;;;1.20;;
44110;SDS011;29774;52.664;5.074;2022-08-01T11:43:34;3.80;;;1.10;;
44110;SDS011;29774;52.664;5.074;2022-08-01T11:46:00;3.45;;;0.90;;
44110;SDS011;29774;52.664;5.074;2022-08-01T11:48:27;4.80;;;1.42;;
44110;SDS011;29774;52.664;5.074;2022-08-01T11:50:56;7.35;;;1.20;;
44110;SDS011;29774;52.664;5.074;2022-08-01T11:53:22;6.28;;;0.90;;
44110;SDS011;29774;52.664;5.074;2022-08-01T11:58:15;9.20;;;1.83;;
44110;SDS011;29774;52.664;5.074;2022-08-01T12:00:41;4.32;;;1.05;;
44110;SDS011;29774;52.664;5.074;2022-08-01T12:03:14;4.43;;;1.92;;
44110;SDS011;29774;52.664;5.074;2022-08-01T12:05:40;3.97;;;0.90;;
44110;SDS011;29774;52.664;5.074;2022-08-01T12:08:08;1.92;;;0.93;;
44110;SDS011;29774;52.664;5.074;2022-08-01T12:10:34;4.45;;;1.08;;
44110;SDS011;29774;52.664;5.074;2022-08-01T12:16:09;2.92;;;1.27;;
44110;SDS011;29774;52.664;5.074;2022-08-01T12:18:39;3.70;;;1.13;;
44110;SDS011;29774;52.664;5.074;2022-08-01T12:21:06;4.05;;;0.90;;
44110;SDS011;29774;52.664;5.074;2022-08-01T12:23:32;3.63;;;1.25;;
44110;SDS011;29774;52.664;5.074;2022-08-01T12:25:57;3.80;;;1.08;;
44110;SDS011;29774;52.664;5.074;2022-08-01T12:28:41;5.43;;;1.38;;
44110;SDS011;29774;52.664;5.074;2022-08-01T12:31:06;5.07;;;1.50;;
44110;SDS011;29774;52.664;5.074;2022-08-01T12:33:32;5.18;;;1.20;;
44110;SDS011;29774;52.664;5.074;2022-08-01T12:35:58;1.75;;;0.90;;
44110;SDS011;29774;52.664;5.074;2022-08-01T12:38:23;4.75;;;0.90;;
44110;SDS011;29774;52.664;5.074;2022-08-01T12:40:51;4.60;;;1.45;;
44110;SDS011;29774;52.664;5.074;2022-08-01T12:43:35;5.07;;;1.00;;
44110;SDS011;29774;52.664;5.074;2022-08-01T12:46:01;2.85;;;0.93;;
44110;SDS011;29774;52.664;5.074;2022-08-01T12:48:27;5.65;;;1.27;;
44110;SDS011;29774;52.664;5.074;2022-08-01T12:50:56;3.97;;;0.90;;
44110;SDS011;29774;52.664;5.074;2022-08-01T12:53:25;3.85;;;1.00;;
44110;SDS011;29774;52.664;5.074;2022-08-01T12:55:52;3.38;;;0.80;;
44110;SDS011;29774;52.664;5.074;2022-08-01T12:58:19;3.47;;;0.75;;
44110;SDS011;29774;52.664;5.074;2022-08-01T13:00:47;2.83;;;0.90;;
44110;SDS011;29774;52.664;5.074;2022-08-01T13:03:14;3.38;;;1.20;;
44110;SDS011;29774;52.664;5.074;2022-08-01T13:05:43;5.78;;;0.90;;
44110;SDS011;29774;52.664;5.074;2022-08-01T13:08:11;5.57;;;1.00;;
44110;SDS011;29774;52.664;5.074;2022-08-01T13:10:37;1.75;;;0.90;;
44110;SDS011;29774;52.664;5.074;2022-08-01T13:13:04;2.95;;;0.85;;
44110;SDS011;29774;52.664;5.074;2022-08-01T13:15:34;2.75;;;0.68;;
44110;SDS011;29774;52.664;5.074;2022-08-01T13:18:24;2.72;;;0.90;;
44110;SDS011;29774;52.664;5.074;2022-08-01T13:23:42;2.63;;;0.73;;
44110;SDS011;29774;52.664;5.074;2022-08-01T13:26:43;2.13;;;0.75;;
44110;SDS011;29774;52.664;5.074;2022-08-01T13:29:11;3.03;;;0.93;;
44110;SDS011;29774;52.664;5.074;2022-08-01T13:31:38;5.60;;;1.02;;
44110;SDS011;29774;52.664;5.074;2022-08-01T13:34:04;3.28;;;0.95;;
44110;SDS011;29774;52.664;5.074;2022-08-01T13:36:30;1.98;;;0.60;;
44110;SDS011;29774;52.664;5.074;2022-08-01T13:38:56;4.18;;;1.13;;
44110;SDS011;29774;52.664;5.074;2022-08-01T13:41:42;1.92;;;0.70;;
44110;SDS011;29774;52.664;5.074;2022-08-01T13:44:09;4.20;;;0.68;;
44110;SDS011;29774;52.664;5.074;2022-08-01T13:46:38;2.03;;;0.70;;
44110;SDS011;29774;52.664;5.074;2022-08-01T13:49:05;4.00;;;1.15;;
44110;SDS011;29774;52.664;5.074;2022-08-01T13:51:32;3.22;;;0.85;;
44110;SDS011;29774;52.664;5.074;2022-08-01T13:53:58;4.63;;;1.13;;
44110;SDS011;29774;52.664;5.074;2022-08-01T13:56:25;2.88;;;0.90;;
44110;SDS011;29774;52.664;5.074;2022-08-01T13:58:52;3.42;;;0.90;;
44110;SDS011;29774;52.664;5.074;2022-08-01T14:01:18;1.88;;;0.70;;
44110;SDS011;29774;52.664;5.074;2022-08-01T14:03:44;2.03;;;1.13;;
44110;SDS011;29774;52.664;5.074;2022-08-01T14:06:09;2.58;;;0.98;;
44110;SDS011;29774;52.664;5.074;2022-08-01T14:08:35;3.33;;;0.75;;
44110;SDS011;29774;52.664;5.074;2022-08-01T14:11:01;4.30;;;1.08;;
44110;SDS011;29774;52.664;5.074;2022-08-01T14:13:26;5.32;;;1.17;;
44110;SDS011;29774;52.664;5.074;2022-08-01T14:15:52;6.18;;;1.40;;
44110;SDS011;29774;52.664;5.074;2022-08-01T14:18:18;5.80;;;1.27;;
44110;SDS011;29774;52.664;5.074;2022-08-01T14:20:44;7.90;;;0.90;;
44110;SDS011;29774;52.664;5.074;2022-08-01T14:23:10;4.45;;;1.45;;
44110;SDS011;29774;52.664;5.074;2022-08-01T14:25:39;4.53;;;0.90;;
44110;SDS011;29774;52.664;5.074;2022-08-01T14:28:05;3.47;;;1.08;;
44110;SDS011;29774;52.664;5.074;2022-08-01T14:30:31;3.08;;;1.02;;
44110;SDS011;29774;52.664;5.074;2022-08-01T14:32:57;2.45;;;1.02;;
44110;SDS011;29774;52.664;5.074;2022-08-01T14:35:23;5.30;;;1.23;;
44110;SDS011;29774;52.664;5.074;2022-08-01T14:37:49;5.07;;;1.20;;
44110;SDS011;29774;52.664;5.074;2022-08-01T14:40:15;3.38;;;0.88;;
44110;SDS011;29774;52.664;5.074;2022-08-01T14:42:40;2.78;;;1.00;;
44110;SDS011;29774;52.664;5.074;2022-08-01T14:45:08;2.53;;;1.02;;
44110;SDS011;29774;52.664;5.074;2022-08-01T14:47:35;4.45;;;1.15;;
44110;SDS011;29774;52.664;5.074;2022-08-01T14:50:02;6.93;;;0.80;;
44110;SDS011;29774;52.664;5.074;2022-08-01T14:52:32;3.17;;;0.80;;
44110;SDS011;29774;52.664;5.074;2022-08-01T14:54:58;3.78;;;0.80;;
44110;SDS011;29774;52.664;5.074;2022-08-01T14:57:24;2.58;;;0.88;;
44110;SDS011;29774;52.664;5.074;2022-08-01T14:59:50;6.03;;;0.93;;
44110;SDS011;29774;52.664;5.074;2022-08-01T15:02:15;2.13;;;0.80;;
44110;SDS011;29774;52.664;5.074;2022-08-01T15:04:42;3.03;;;1.08;;
44110;SDS011;29774;52.664;5.074;2022-08-01T15:07:09;5.68;;;1.17;;
44110;SDS011;29774;52.664;5.074;2022-08-01T15:09:35;4.47;;;1.20;;
44110;SDS011;29774;52.664;5.074;2022-08-01T15:12:01;2.88;;;1.20;;
44110;SDS011;29774;52.664;5.074;2022-08-01T15:14:27;5.25;;;0.98;;
44110;SDS011;29774;52.664;5.074;2022-08-01T15:17:11;1.63;;;0.50;;
44110;SDS011;29774;52.664;5.074;2022-08-01T15:19:37;4.97;;;1.00;;
44110;SDS011;29774;52.664;5.074;2022-08-01T15:22:03;2.63;;;0.80;;
44110;SDS011;29774;52.664;5.074;2022-08-01T15:24:29;2.17;;;0.90;;
44110;SDS011;29774;52.664;5.074;2022-08-01T15:26:54;1.75;;;0.90;;
44110;SDS011;29774;52.664;5.074;2022-08-01T15:29:20;3.70;;;1.00;;
44110;SDS011;29774;52.664;5.074;2022-08-01T15:31:45;2.92;;;0.90;;
44110;SDS011;29774;52.664;5.074;2022-08-01T15:34:11;2.95;;;0.77;;
44110;SDS011;29774;52.664;5.074;2022-08-01T15:36:36;5.82;;;1.02;;
44110;SDS011;29774;52.664;5.074;2022-08-01T15:39:02;1.80;;;0.70;;
44110;SDS011;29774;52.664;5.074;2022-08-01T15:41:27;3.88;;;0.80;;